sensor_id;sensor_type;location;lat;lon;timestamp;P1;durP1;ratioP1;P2;durP2;ratioP2
19291;SDS011;9779;51.756;7.450;2023-06-24T00:02:12;4.77;;;4.47;;
19291;SDS011;9779;51.756;7.450;2023-06-24T00:04:38;5.07;;;4.50;;
19291;SDS011;9779;51.756;7.450;2023-06-24T00:07:04;4.70;;;4.40;;
19291;SDS011;9779;51.756;7.450;2023-06-24T00:09:30;6.30;;;4.87;;
19291;SDS011;9779;51.756;7.450;2023-06-24T00:11:56;5.18;;;4.78;;
19291;SDS011;9779;51.756;7.450;2023-06-24T00:14:26;5.43;;;5.13;;
19291;SDS011;9779;51.756;7.450;2023-06-24T00:16:52;5.37;;;5.00;;
19291;SDS011;9779;51.756;7.450;2023-06-24T00:19:19;5.07;;;4.77;;
19291;SDS011;9779;51.756;7.450;2023-06-24T00:21:46;6.40;;;5.20;;
19291;SDS011;9779;51.756;7.450;2023-06-24T00:24:12;5.23;;;4.83;;
19291;SDS011;9779;51.756;7.450;2023-06-24T00:26:38;5.00;;;4.60;;
19291;SDS011;9779;51.756;7.450;2023-06-24T00:29:04;9.37;;;4.70;;
19291;SDS011;9779;51.756;7.450;2023-06-24T00:31:29;5.47;;;5.07;;
19291;SDS011;9779;51.756;7.450;2023-06-24T00:33:55;4.83;;;4.30;;
19291;SDS011;9779;51.756;7.450;2023-06-24T00:36:21;4.90;;;4.60;;
19291;SDS011;9779;51.756;7.450;2023-06-24T00:38:46;5.27;;;4.87;;
19291;SDS011;9779;51.756;7.450;2023-06-24T00:41:13;5.17;;;4.73;;
19291;SDS011;9779;51.756;7.450;2023-06-24T00:43:41;5.50;;;5.20;;
19291;SDS011;9779;51.756;7.450;2023-06-24T00:46:06;5.20;;;4.80;;
19291;SDS011;9779;51.756;7.450;2023-06-24T00:48:32;4.90;;;4.50;;
19291;SDS011;9779;51.756;7.450;2023-06-24T00:50:57;5.37;;;4.87;;
19291;SDS011;9779;51.756;7.450;2023-06-24T00:53:26;4.93;;;4.63;;
19291;SDS011;9779;51.756;7.450;2023-06-24T00:55:52;9.90;;;5.20;;
19291;SDS011;9779;51.756;7.450;2023-06-24T00:58:20;5.87;;;4.63;;
19291;SDS011;9779;51.756;7.450;2023-06-24T01:00:47;6.80;;;5.13;;
19291;SDS011;9779;51.756;7.450;2023-06-24T01:03:22;5.00;;;4.70;;
19291;SDS011;9779;51.756;7.450;2023-06-24T01:05:50;7.37;;;4.63;;
19291;SDS011;9779;51.756;7.450;2023-06-24T01:08:16;5.50;;;5.00;;
19291;SDS011;9779;51.756;7.450;2023-06-24T01:10:42;5.37;;;4.97;;
19291;SDS011;9779;51.756;7.450;2023-06-24T01:13:08;10.47;;;5.00;;
19291;SDS011;9779;51.756;7.450;2023-06-24T01:15:34;6.53;;;5.20;;
19291;SDS011;9779;51.756;7.450;2023-06-24T01:36:37;6.00;;;4.80;;
19291;SDS011;9779;51.756;7.450;2023-06-24T01:39:07;6.90;;;4.70;;
19291;SDS011;9779;51.756;7.450;2023-06-24T01:41:36;10.60;;;4.87;;
19291;SDS011;9779;51.756;7.450;2023-06-24T01:44:07;9.37;;;5.50;;
19291;SDS011;9779;51.756;7.450;2023-06-24T01:46:35;5.97;;;5.07;;
19291;SDS011;9779;51.756;7.450;2023-06-24T01:49:02;9.13;;;5.30;;
19291;SDS011;9779;51.756;7.450;2023-06-24T01:51:32;9.23;;;5.77;;
19291;SDS011;9779;51.756;7.450;2023-06-24T01:54:03;5.43;;;5.03;;
19291;SDS011;9779;51.756;7.450;2023-06-24T01:56:32;5.47;;;4.97;;
19291;SDS011;9779;51.756;7.450;2023-06-24T01:59:00;6.30;;;5.20;;
19291;SDS011;9779;51.756;7.450;2023-06-24T02:01:31;5.23;;;4.73;;
19291;SDS011;9779;51.756;7.450;2023-06-24T02:03:58;7.57;;;5.80;;
19291;SDS011;9779;51.756;7.450;2023-06-24T02:06:26;5.60;;;5.20;;
19291;SDS011;9779;51.756;7.450;2023-06-24T02:08:54;6.97;;;4.87;;
19291;SDS011;9779;51.756;7.450;2023-06-24T02:11:23;7.13;;;5.90;;
19291;SDS011;9779;51.756;7.450;2023-06-24T02:13:50;6.17;;;5.53;;
19291;SDS011;9779;51.756;7.450;2023-06-24T02:16:18;5.53;;;5.10;;
19291;SDS011;9779;51.756;7.450;2023-06-24T02:18:46;6.23;;;5.53;;
19291;SDS011;9779;51.756;7.450;2023-06-24T02:21:13;5.70;;;5.20;;
19291;SDS011;9779;51.756;7.450;2023-06-24T02:23:41;6.10;;;5.70;;
19291;SDS011;9779;51.756;7.450;2023-06-24T02:26:07;5.53;;;5.13;;
19291;SDS011;9779;51.756;7.450;2023-06-24T02:28:34;12.17;;;5.87;;
19291;SDS011;9779;51.756;7.450;2023-06-24T02:31:02;6.30;;;5.70;;
19291;SDS011;9779;51.756;7.450;2023-06-24T02:33:29;8.73;;;5.17;;
19291;SDS011;9779;51.756;7.450;2023-06-24T02:35:54;5.77;;;5.37;;
19291;SDS011;9779;51.756;7.450;2023-06-24T02:38:20;6.50;;;5.80;;
19291;SDS011;9779;51.756;7.450;2023-06-24T02:40:46;6.37;;;5.77;;
19291;SDS011;9779;51.756;7.450;2023-06-24T02:43:11;5.83;;;5.33;;
19291;SDS011;9779;51.756;7.450;2023-06-24T02:45:38;6.30;;;5.73;;
19291;SDS011;9779;51.756;7.450;2023-06-24T02:48:05;6.50;;;5.87;;
19291;SDS011;9779;51.756;7.450;2023-06-24T02:50:33;5.73;;;5.43;;
19291;SDS011;9779;51.756;7.450;2023-06-24T02:52:59;7.33;;;5.37;;
19291;SDS011;9779;51.756;7.450;2023-06-24T02:55:25;5.93;;;5.33;;
19291;SDS011;9779;51.756;7.450;2023-06-24T02:57:52;6.73;;;5.43;;
19291;SDS011;9779;51.756;7.450;2023-06-24T03:00:18;8.37;;;5.73;;
19291;SDS011;9779;51.756;7.450;2023-06-24T03:02:45;11.90;;;5.53;;
19291;SDS011;9779;51.756;7.450;2023-06-24T03:05:13;8.07;;;5.17;;
19291;SDS011;9779;51.756;7.450;2023-06-24T03:07:40;5.57;;;5.17;;
19291;SDS011;9779;51.756;7.450;2023-06-24T03:10:07;9.23;;;5.20;;
19291;SDS011;9779;51.756;7.450;2023-06-24T03:12:33;9.10;;;5.33;;
19291;SDS011;9779;51.756;7.450;2023-06-24T03:14:59;9.67;;;5.13;;
19291;SDS011;9779;51.756;7.450;2023-06-24T03:17:26;8.73;;;5.10;;
19291;SDS011;9779;51.756;7.450;2023-06-24T03:19:51;7.53;;;5.20;;
19291;SDS011;9779;51.756;7.450;2023-06-24T03:22:17;6.50;;;5.33;;
19291;SDS011;9779;51.756;7.450;2023-06-24T03:24:43;6.03;;;5.07;;
19291;SDS011;9779;51.756;7.450;2023-06-24T03:27:08;5.77;;;5.07;;
19291;SDS011;9779;51.756;7.450;2023-06-24T03:29:34;8.50;;;5.97;;
19291;SDS011;9779;51.756;7.450;2023-06-24T03:32:00;13.03;;;5.70;;
19291;SDS011;9779;51.756;7.450;2023-06-24T03:34:25;5.70;;;5.30;;
19291;SDS011;9779;51.756;7.450;2023-06-24T03:36:52;10.37;;;5.80;;
19291;SDS011;9779;51.756;7.450;2023-06-24T03:39:21;7.70;;;5.37;;
19291;SDS011;9779;51.756;7.450;2023-06-24T03:41:47;7.13;;;4.87;;
19291;SDS011;9779;51.756;7.450;2023-06-24T03:44:13;7.73;;;5.47;;
19291;SDS011;9779;51.756;7.450;2023-06-24T03:46:38;8.50;;;5.10;;
19291;SDS011;9779;51.756;7.450;2023-06-24T03:49:04;9.30;;;5.70;;
19291;SDS011;9779;51.756;7.450;2023-06-24T03:51:30;5.83;;;5.47;;
19291;SDS011;9779;51.756;7.450;2023-06-24T03:53:56;6.93;;;5.83;;
19291;SDS011;9779;51.756;7.450;2023-06-24T03:56:21;7.17;;;5.43;;
19291;SDS011;9779;51.756;7.450;2023-06-24T03:58:47;6.03;;;5.63;;
19291;SDS011;9779;51.756;7.450;2023-06-24T04:01:13;8.53;;;5.53;;
19291;SDS011;9779;51.756;7.450;2023-06-24T04:03:38;7.73;;;5.37;;
19291;SDS011;9779;51.756;7.450;2023-06-24T04:06:04;12.07;;;6.63;;
19291;SDS011;9779;51.756;7.450;2023-06-24T04:08:29;8.47;;;5.67;;
19291;SDS011;9779;51.756;7.450;2023-06-24T04:10:55;5.17;;;4.77;;
19291;SDS011;9779;51.756;7.450;2023-06-24T04:13:28;9.73;;;5.93;;
19291;SDS011;9779;51.756;7.450;2023-06-24T04:15:54;12.30;;;5.67;;
19291;SDS011;9779;51.756;7.450;2023-06-24T04:18:20;9.70;;;5.83;;
19291;SDS011;9779;51.756;7.450;2023-06-24T04:20:46;13.17;;;6.10;;
19291;SDS011;9779;51.756;7.450;2023-06-24T04:23:12;8.93;;;5.37;;
19291;SDS011;9779;51.756;7.450;2023-06-24T04:25:39;6.17;;;5.70;;
19291;SDS011;9779;51.756;7.450;2023-06-24T04:28:05;6.47;;;5.90;;
19291;SDS011;9779;51.756;7.450;2023-06-24T04:30:31;6.80;;;6.13;;
19291;SDS011;9779;51.756;7.450;2023-06-24T04:32:57;8.27;;;6.10;;
19291;SDS011;9779;51.756;7.450;2023-06-24T04:35:23;6.77;;;6.07;;
19291;SDS011;9779;51.756;7.450;2023-06-24T04:37:49;6.30;;;5.80;;
19291;SDS011;9779;51.756;7.450;2023-06-24T04:40:16;10.57;;;5.47;;
19291;SDS011;9779;51.756;7.450;2023-06-24T04:42:42;8.70;;;5.83;;
19291;SDS011;9779;51.756;7.450;2023-06-24T04:45:08;8.83;;;5.97;;
19291;SDS011;9779;51.756;7.450;2023-06-24T04:47:33;6.87;;;6.10;;
19291;SDS011;9779;51.756;7.450;2023-06-24T04:49:59;7.93;;;7.03;;
19291;SDS011;9779;51.756;7.450;2023-06-24T04:52:25;8.67;;;6.93;;
19291;SDS011;9779;51.756;7.450;2023-06-24T04:54:50;11.47;;;6.03;;
19291;SDS011;9779;51.756;7.450;2023-06-24T04:57:23;7.43;;;6.47;;
19291;SDS011;9779;51.756;7.450;2023-06-24T04:59:52;9.47;;;7.23;;
19291;SDS011;9779;51.756;7.450;2023-06-24T05:02:18;12.97;;;7.00;;
19291;SDS011;9779;51.756;7.450;2023-06-24T05:04:43;8.60;;;6.93;;
19291;SDS011;9779;51.756;7.450;2023-06-24T05:07:09;10.97;;;7.40;;
19291;SDS011;9779;51.756;7.450;2023-06-24T05:09:35;7.77;;;7.07;;
19291;SDS011;9779;51.756;7.450;2023-06-24T05:12:03;9.47;;;7.63;;
19291;SDS011;9779;51.756;7.450;2023-06-24T05:14:29;13.27;;;7.63;;
19291;SDS011;9779;51.756;7.450;2023-06-24T05:16:54;8.17;;;7.40;;
19291;SDS011;9779;51.756;7.450;2023-06-24T05:19:20;16.17;;;8.30;;
19291;SDS011;9779;51.756;7.450;2023-06-24T05:21:45;9.87;;;7.80;;
19291;SDS011;9779;51.756;7.450;2023-06-24T05:24:11;8.60;;;7.80;;
19291;SDS011;9779;51.756;7.450;2023-06-24T05:26:37;14.37;;;8.30;;
19291;SDS011;9779;51.756;7.450;2023-06-24T05:29:02;9.93;;;8.03;;
19291;SDS011;9779;51.756;7.450;2023-06-24T05:31:28;14.20;;;8.13;;
19291;SDS011;9779;51.756;7.450;2023-06-24T05:33:54;8.50;;;7.77;;
19291;SDS011;9779;51.756;7.450;2023-06-24T05:36:19;7.30;;;6.30;;
19291;SDS011;9779;51.756;7.450;2023-06-24T05:38:45;7.67;;;6.80;;
19291;SDS011;9779;51.756;7.450;2023-06-24T05:41:10;9.27;;;7.97;;
19291;SDS011;9779;51.756;7.450;2023-06-24T05:43:36;12.33;;;7.97;;
19291;SDS011;9779;51.756;7.450;2023-06-24T05:46:01;9.73;;;7.93;;
19291;SDS011;9779;51.756;7.450;2023-06-24T05:48:27;8.77;;;7.00;;
19291;SDS011;9779;51.756;7.450;2023-06-24T05:50:52;10.27;;;7.23;;
19291;SDS011;9779;51.756;7.450;2023-06-24T05:53:18;8.47;;;7.00;;
19291;SDS011;9779;51.756;7.450;2023-06-24T05:55:43;9.37;;;7.40;;
19291;SDS011;9779;51.756;7.450;2023-06-24T05:58:09;13.60;;;8.30;;
19291;SDS011;9779;51.756;7.450;2023-06-24T06:00:35;16.47;;;8.27;;
19291;SDS011;9779;51.756;7.450;2023-06-24T06:03:01;11.27;;;8.20;;
19291;SDS011;9779;51.756;7.450;2023-06-24T06:05:27;23.77;;;7.90;;
19291;SDS011;9779;51.756;7.450;2023-06-24T06:07:52;8.67;;;7.80;;
19291;SDS011;9779;51.756;7.450;2023-06-24T06:10:18;8.90;;;8.27;;
19291;SDS011;9779;51.756;7.450;2023-06-24T06:12:44;11.17;;;8.47;;
19291;SDS011;9779;51.756;7.450;2023-06-24T06:15:10;8.33;;;7.63;;
19291;SDS011;9779;51.756;7.450;2023-06-24T06:17:36;9.93;;;8.43;;
19291;SDS011;9779;51.756;7.450;2023-06-24T06:20:02;19.27;;;8.63;;
19291;SDS011;9779;51.756;7.450;2023-06-24T06:22:28;13.63;;;9.35;;
19291;SDS011;9779;51.756;7.450;2023-06-24T06:24:54;12.57;;;8.87;;
19291;SDS011;9779;51.756;7.450;2023-06-24T06:27:19;8.95;;;8.10;;
19291;SDS011;9779;51.756;7.450;2023-06-24T06:29:45;8.93;;;8.27;;
19291;SDS011;9779;51.756;7.450;2023-06-24T06:32:10;8.88;;;8.07;;
19291;SDS011;9779;51.756;7.450;2023-06-24T06:34:36;8.60;;;7.87;;
19291;SDS011;9779;51.756;7.450;2023-06-24T06:37:02;8.23;;;7.55;;
19291;SDS011;9779;51.756;7.450;2023-06-24T06:39:27;16.42;;;8.05;;
19291;SDS011;9779;51.756;7.450;2023-06-24T06:41:53;8.57;;;7.93;;
19291;SDS011;9779;51.756;7.450;2023-06-24T06:44:18;10.88;;;7.25;;
19291;SDS011;9779;51.756;7.450;2023-06-24T06:46:44;8.70;;;7.90;;
19291;SDS011;9779;51.756;7.450;2023-06-24T06:49:10;11.53;;;8.50;;
19291;SDS011;9779;51.756;7.450;2023-06-24T06:51:35;8.23;;;7.53;;
19291;SDS011;9779;51.756;7.450;2023-06-24T06:54:01;10.90;;;8.75;;
19291;SDS011;9779;51.756;7.450;2023-06-24T06:56:28;7.93;;;7.43;;
19291;SDS011;9779;51.756;7.450;2023-06-24T06:58:54;8.43;;;7.53;;
19291;SDS011;9779;51.756;7.450;2023-06-24T07:01:19;8.27;;;7.55;;
19291;SDS011;9779;51.756;7.450;2023-06-24T07:03:45;6.83;;;6.33;;
19291;SDS011;9779;51.756;7.450;2023-06-24T07:06:10;8.20;;;6.72;;
19291;SDS011;9779;51.756;7.450;2023-06-24T07:08:36;16.88;;;8.10;;
19291;SDS011;9779;51.756;7.450;2023-06-24T07:11:02;8.00;;;7.18;;
19291;SDS011;9779;51.756;7.450;2023-06-24T07:13:27;7.68;;;7.15;;
19291;SDS011;9779;51.756;7.450;2023-06-24T07:15:53;6.82;;;6.43;;
19291;SDS011;9779;51.756;7.450;2023-06-24T07:18:19;6.10;;;5.60;;
19291;SDS011;9779;51.756;7.450;2023-06-24T07:20:44;6.45;;;5.78;;
19291;SDS011;9779;51.756;7.450;2023-06-24T07:23:10;7.13;;;6.30;;
19291;SDS011;9779;51.756;7.450;2023-06-24T07:25:36;6.40;;;5.55;;
19291;SDS011;9779;51.756;7.450;2023-06-24T07:28:02;6.55;;;5.85;;
19291;SDS011;9779;51.756;7.450;2023-06-24T07:30:27;6.63;;;5.93;;
19291;SDS011;9779;51.756;7.450;2023-06-24T07:32:53;6.38;;;5.95;;
19291;SDS011;9779;51.756;7.450;2023-06-24T07:35:18;6.78;;;5.72;;
19291;SDS011;9779;51.756;7.450;2023-06-24T07:37:44;8.10;;;6.47;;
19291;SDS011;9779;51.756;7.450;2023-06-24T07:40:10;9.55;;;5.78;;
19291;SDS011;9779;51.756;7.450;2023-06-24T07:42:36;8.40;;;7.05;;
19291;SDS011;9779;51.756;7.450;2023-06-24T07:45:01;11.88;;;6.50;;
19291;SDS011;9779;51.756;7.450;2023-06-24T07:47:27;8.02;;;6.82;;
19291;SDS011;9779;51.756;7.450;2023-06-24T07:49:53;5.35;;;4.95;;
19291;SDS011;9779;51.756;7.450;2023-06-24T07:52:18;11.30;;;6.15;;
19291;SDS011;9779;51.756;7.450;2023-06-24T07:54:44;6.95;;;6.35;;
19291;SDS011;9779;51.756;7.450;2023-06-24T07:57:09;6.32;;;5.82;;
19291;SDS011;9779;51.756;7.450;2023-06-24T07:59:35;6.18;;;5.68;;
19291;SDS011;9779;51.756;7.450;2023-06-24T08:02:00;12.52;;;6.30;;
19291;SDS011;9779;51.756;7.450;2023-06-24T08:04:26;8.27;;;7.25;;
19291;SDS011;9779;51.756;7.450;2023-06-24T08:06:52;8.48;;;6.10;;
19291;SDS011;9779;51.756;7.450;2023-06-24T08:09:17;6.20;;;5.70;;
19291;SDS011;9779;51.756;7.450;2023-06-24T08:11:43;5.45;;;5.05;;
19291;SDS011;9779;51.756;7.450;2023-06-24T08:14:09;6.70;;;6.20;;
19291;SDS011;9779;51.756;7.450;2023-06-24T08:16:34;6.05;;;5.55;;
19291;SDS011;9779;51.756;7.450;2023-06-24T08:19:00;7.00;;;6.30;;
19291;SDS011;9779;51.756;7.450;2023-06-24T08:21:25;6.50;;;6.00;;
19291;SDS011;9779;51.756;7.450;2023-06-24T08:23:51;6.63;;;5.88;;
19291;SDS011;9779;51.756;7.450;2023-06-24T08:26:17;6.45;;;5.95;;
19291;SDS011;9779;51.756;7.450;2023-06-24T08:28:46;7.75;;;7.00;;
19291;SDS011;9779;51.756;7.450;2023-06-24T08:31:13;5.63;;;5.22;;
19291;SDS011;9779;51.756;7.450;2023-06-24T08:33:38;5.28;;;4.93;;
19291;SDS011;9779;51.756;7.450;2023-06-24T08:36:04;6.65;;;6.15;;
19291;SDS011;9779;51.756;7.450;2023-06-24T08:38:29;6.40;;;6.00;;
19291;SDS011;9779;51.756;7.450;2023-06-24T08:40:55;10.90;;;6.93;;
19291;SDS011;9779;51.756;7.450;2023-06-24T08:43:21;6.65;;;6.15;;
19291;SDS011;9779;51.756;7.450;2023-06-24T08:45:47;5.55;;;5.20;;
19291;SDS011;9779;51.756;7.450;2023-06-24T08:48:12;7.20;;;6.60;;
19291;SDS011;9779;51.756;7.450;2023-06-24T08:50:40;6.90;;;6.30;;
19291;SDS011;9779;51.756;7.450;2023-06-24T08:53:11;8.35;;;5.65;;
19291;SDS011;9779;51.756;7.450;2023-06-24T08:55:45;10.63;;;5.75;;
19291;SDS011;9779;51.756;7.450;2023-06-24T08:58:11;5.97;;;5.50;;
19291;SDS011;9779;51.756;7.450;2023-06-24T09:00:37;4.80;;;4.25;;
19291;SDS011;9779;51.756;7.450;2023-06-24T09:03:03;6.68;;;5.88;;
19291;SDS011;9779;51.756;7.450;2023-06-24T09:05:28;5.47;;;5.10;;
19291;SDS011;9779;51.756;7.450;2023-06-24T09:07:54;6.70;;;6.10;;
19291;SDS011;9779;51.756;7.450;2023-06-24T09:10:32;7.72;;;6.43;;
19291;SDS011;9779;51.756;7.450;2023-06-24T09:13:02;9.20;;;5.68;;
19291;SDS011;9779;51.756;7.450;2023-06-24T09:15:38;6.28;;;5.68;;
19291;SDS011;9779;51.756;7.450;2023-06-24T09:18:04;6.40;;;5.90;;
19291;SDS011;9779;51.756;7.450;2023-06-24T09:20:31;6.13;;;5.63;;
19291;SDS011;9779;51.756;7.450;2023-06-24T09:22:58;4.72;;;4.43;;
19291;SDS011;9779;51.756;7.450;2023-06-24T09:25:24;7.28;;;6.72;;
19291;SDS011;9779;51.756;7.450;2023-06-24T09:27:50;6.28;;;5.80;;
19291;SDS011;9779;51.756;7.450;2023-06-24T09:30:21;5.93;;;5.40;;
19291;SDS011;9779;51.756;7.450;2023-06-24T09:32:48;6.95;;;5.63;;
19291;SDS011;9779;51.756;7.450;2023-06-24T09:35:14;6.07;;;5.57;;
19291;SDS011;9779;51.756;7.450;2023-06-24T09:37:48;7.15;;;6.03;;
19291;SDS011;9779;51.756;7.450;2023-06-24T09:40:14;7.93;;;5.25;;
19291;SDS011;9779;51.756;7.450;2023-06-24T09:42:47;6.20;;;5.60;;
19291;SDS011;9779;51.756;7.450;2023-06-24T09:45:26;8.18;;;6.25;;
19291;SDS011;9779;51.756;7.450;2023-06-24T09:47:53;6.72;;;5.95;;
19291;SDS011;9779;51.756;7.450;2023-06-24T09:50:19;6.45;;;5.97;;
19291;SDS011;9779;51.756;7.450;2023-06-24T09:52:45;6.68;;;5.65;;
19291;SDS011;9779;51.756;7.450;2023-06-24T09:55:13;6.80;;;6.30;;
19291;SDS011;9779;51.756;7.450;2023-06-24T09:57:40;5.80;;;5.35;;
19291;SDS011;9779;51.756;7.450;2023-06-24T10:00:09;6.43;;;5.82;;
19291;SDS011;9779;51.756;7.450;2023-06-24T10:02:35;5.45;;;4.95;;
19291;SDS011;9779;51.756;7.450;2023-06-24T10:05:01;6.68;;;6.05;;
19291;SDS011;9779;51.756;7.450;2023-06-24T10:07:28;7.13;;;5.38;;
19291;SDS011;9779;51.756;7.450;2023-06-24T10:09:53;5.20;;;4.70;;
19291;SDS011;9779;51.756;7.450;2023-06-24T10:12:20;4.57;;;4.22;;
19291;SDS011;9779;51.756;7.450;2023-06-24T10:14:45;6.00;;;5.50;;
19291;SDS011;9779;51.756;7.450;2023-06-24T10:17:11;4.40;;;4.10;;
19291;SDS011;9779;51.756;7.450;2023-06-24T10:19:38;5.30;;;4.80;;
19291;SDS011;9779;51.756;7.450;2023-06-24T10:22:08;5.95;;;5.43;;
19291;SDS011;9779;51.756;7.450;2023-06-24T10:24:35;5.70;;;5.20;;
19291;SDS011;9779;51.756;7.450;2023-06-24T10:29:38;5.35;;;4.85;;
19291;SDS011;9779;51.756;7.450;2023-06-24T10:34:34;7.13;;;6.43;;
19291;SDS011;9779;51.756;7.450;2023-06-24T10:44:49;6.80;;;5.32;;
19291;SDS011;9779;51.756;7.450;2023-06-24T10:47:15;10.10;;;4.65;;
19291;SDS011;9779;51.756;7.450;2023-06-24T10:49:41;5.30;;;4.85;;
19291;SDS011;9779;51.756;7.450;2023-06-24T10:52:07;6.68;;;4.47;;
19291;SDS011;9779;51.756;7.450;2023-06-24T10:54:39;4.38;;;4.07;;
19291;SDS011;9779;51.756;7.450;2023-06-24T10:57:06;5.35;;;4.90;;
19291;SDS011;9779;51.756;7.450;2023-06-24T10:59:35;6.10;;;5.60;;
19291;SDS011;9779;51.756;7.450;2023-06-24T11:02:05;4.75;;;4.35;;
19291;SDS011;9779;51.756;7.450;2023-06-24T11:04:32;4.03;;;3.63;;
19291;SDS011;9779;51.756;7.450;2023-06-24T11:07:01;5.22;;;3.72;;
19291;SDS011;9779;51.756;7.450;2023-06-24T11:09:27;5.15;;;3.17;;
19291;SDS011;9779;51.756;7.450;2023-06-24T11:11:53;4.28;;;3.65;;
19291;SDS011;9779;51.756;7.450;2023-06-24T11:14:22;6.65;;;4.13;;
19291;SDS011;9779;51.756;7.450;2023-06-24T11:16:47;7.88;;;3.33;;
19291;SDS011;9779;51.756;7.450;2023-06-24T11:19:13;3.70;;;2.67;;
19291;SDS011;9779;51.756;7.450;2023-06-24T11:21:38;3.53;;;3.22;;
19291;SDS011;9779;51.756;7.450;2023-06-24T11:24:04;3.22;;;2.92;;
19291;SDS011;9779;51.756;7.450;2023-06-24T11:26:30;4.82;;;3.65;;
19291;SDS011;9779;51.756;7.450;2023-06-24T11:28:57;4.32;;;4.03;;
19291;SDS011;9779;51.756;7.450;2023-06-24T11:31:25;2.70;;;2.55;;
19291;SDS011;9779;51.756;7.450;2023-06-24T11:33:51;3.80;;;2.97;;
19291;SDS011;9779;51.756;7.450;2023-06-24T11:36:19;5.13;;;3.25;;
19291;SDS011;9779;51.756;7.450;2023-06-24T11:38:45;4.95;;;3.25;;
19291;SDS011;9779;51.756;7.450;2023-06-24T11:41:11;3.90;;;2.80;;
19291;SDS011;9779;51.756;7.450;2023-06-24T11:43:37;3.03;;;2.83;;
19291;SDS011;9779;51.756;7.450;2023-06-24T11:46:08;2.50;;;2.30;;
19291;SDS011;9779;51.756;7.450;2023-06-24T11:48:38;3.17;;;2.50;;
19291;SDS011;9779;51.756;7.450;2023-06-24T11:51:11;3.17;;;2.97;;
19291;SDS011;9779;51.756;7.450;2023-06-24T11:53:41;2.80;;;2.60;;
19291;SDS011;9779;51.756;7.450;2023-06-24T11:56:08;2.35;;;2.15;;
19291;SDS011;9779;51.756;7.450;2023-06-24T11:58:34;2.30;;;2.10;;
19291;SDS011;9779;51.756;7.450;2023-06-24T12:01:03;2.50;;;2.40;;
19291;SDS011;9779;51.756;7.450;2023-06-24T12:03:32;4.22;;;2.17;;
19291;SDS011;9779;51.756;7.450;2023-06-24T12:05:58;2.40;;;2.20;;
19291;SDS011;9779;51.756;7.450;2023-06-24T12:08:24;2.00;;;1.90;;
19291;SDS011;9779;51.756;7.450;2023-06-24T12:10:50;2.10;;;2.00;;
19291;SDS011;9779;51.756;7.450;2023-06-24T12:13:16;4.47;;;2.50;;
19291;SDS011;9779;51.756;7.450;2023-06-24T12:15:41;2.33;;;1.90;;
19291;SDS011;9779;51.756;7.450;2023-06-24T12:18:07;2.00;;;1.90;;
19291;SDS011;9779;51.756;7.450;2023-06-24T12:20:33;2.60;;;2.40;;
19291;SDS011;9779;51.756;7.450;2023-06-24T12:23:00;3.90;;;2.90;;
19291;SDS011;9779;51.756;7.450;2023-06-24T12:25:25;2.38;;;2.17;;
19291;SDS011;9779;51.756;7.450;2023-06-24T12:27:51;3.50;;;2.55;;
19291;SDS011;9779;51.756;7.450;2023-06-24T12:30:17;2.50;;;2.30;;
19291;SDS011;9779;51.756;7.450;2023-06-24T12:32:42;2.72;;;2.53;;
19291;SDS011;9779;51.756;7.450;2023-06-24T12:35:08;3.03;;;2.25;;
19291;SDS011;9779;51.756;7.450;2023-06-24T12:37:35;2.92;;;2.33;;
19291;SDS011;9779;51.756;7.450;2023-06-24T12:40:01;2.22;;;2.00;;
19291;SDS011;9779;51.756;7.450;2023-06-24T12:42:27;2.78;;;2.58;;
19291;SDS011;9779;51.756;7.450;2023-06-24T12:44:53;2.58;;;2.38;;
19291;SDS011;9779;51.756;7.450;2023-06-24T12:47:19;2.30;;;2.10;;
19291;SDS011;9779;51.756;7.450;2023-06-24T12:49:46;9.27;;;2.10;;
19291;SDS011;9779;51.756;7.450;2023-06-24T12:52:12;2.60;;;2.40;;
19291;SDS011;9779;51.756;7.450;2023-06-24T12:54:38;2.30;;;2.10;;
19291;SDS011;9779;51.756;7.450;2023-06-24T12:57:04;7.15;;;2.20;;
19291;SDS011;9779;51.756;7.450;2023-06-24T12:59:30;2.53;;;2.33;;
19291;SDS011;9779;51.756;7.450;2023-06-24T13:01:56;3.75;;;2.22;;
19291;SDS011;9779;51.756;7.450;2023-06-24T13:04:22;6.57;;;2.30;;
19291;SDS011;9779;51.756;7.450;2023-06-24T13:06:48;1.95;;;1.75;;
19291;SDS011;9779;51.756;7.450;2023-06-24T13:09:15;2.20;;;2.00;;
19291;SDS011;9779;51.756;7.450;2023-06-24T13:11:41;1.85;;;1.73;;
19291;SDS011;9779;51.756;7.450;2023-06-24T13:14:07;5.35;;;1.98;;
19291;SDS011;9779;51.756;7.450;2023-06-24T13:16:34;2.92;;;2.50;;
19291;SDS011;9779;51.756;7.450;2023-06-24T13:19:01;1.75;;;1.65;;
19291;SDS011;9779;51.756;7.450;2023-06-24T13:21:26;3.90;;;2.00;;
19291;SDS011;9779;51.756;7.450;2023-06-24T13:23:52;2.88;;;1.98;;
19291;SDS011;9779;51.756;7.450;2023-06-24T13:26:17;3.25;;;2.15;;
19291;SDS011;9779;51.756;7.450;2023-06-24T13:28:43;1.77;;;1.67;;
19291;SDS011;9779;51.756;7.450;2023-06-24T13:31:09;2.17;;;2.03;;
19291;SDS011;9779;51.756;7.450;2023-06-24T13:33:36;1.98;;;1.60;;
19291;SDS011;9779;51.756;7.450;2023-06-24T13:36:03;2.40;;;1.85;;
19291;SDS011;9779;51.756;7.450;2023-06-24T13:38:32;2.58;;;1.40;;
19291;SDS011;9779;51.756;7.450;2023-06-24T13:40:57;2.25;;;2.10;;
19291;SDS011;9779;51.756;7.450;2023-06-24T13:43:23;1.90;;;1.70;;
19291;SDS011;9779;51.756;7.450;2023-06-24T13:45:48;7.20;;;2.17;;
19291;SDS011;9779;51.756;7.450;2023-06-24T13:48:16;4.03;;;1.65;;
19291;SDS011;9779;51.756;7.450;2023-06-24T13:50:41;2.08;;;1.88;;
19291;SDS011;9779;51.756;7.450;2023-06-24T13:53:07;1.83;;;1.73;;
19291;SDS011;9779;51.756;7.450;2023-06-24T13:55:32;1.70;;;1.35;;
19291;SDS011;9779;51.756;7.450;2023-06-24T13:57:58;1.70;;;1.60;;
19291;SDS011;9779;51.756;7.450;2023-06-24T14:00:23;1.60;;;1.50;;
19291;SDS011;9779;51.756;7.450;2023-06-24T14:02:50;2.20;;;1.63;;
19291;SDS011;9779;51.756;7.450;2023-06-24T14:05:16;78.95;;;5.10;;
19291;SDS011;9779;51.756;7.450;2023-06-24T14:07:41;3.20;;;1.80;;
19291;SDS011;9779;51.756;7.450;2023-06-24T14:10:07;1.60;;;1.50;;
19291;SDS011;9779;51.756;7.450;2023-06-24T14:12:33;2.00;;;1.42;;
19291;SDS011;9779;51.756;7.450;2023-06-24T14:14:58;2.63;;;1.50;;
19291;SDS011;9779;51.756;7.450;2023-06-24T14:17:24;2.17;;;1.63;;
19291;SDS011;9779;51.756;7.450;2023-06-24T14:19:49;1.13;;;1.10;;
19291;SDS011;9779;51.756;7.450;2023-06-24T14:22:15;1.90;;;1.35;;
19291;SDS011;9779;51.756;7.450;2023-06-24T14:24:42;1.83;;;1.73;;
19291;SDS011;9779;51.756;7.450;2023-06-24T14:27:08;2.25;;;1.40;;
19291;SDS011;9779;51.756;7.450;2023-06-24T14:29:33;1.50;;;1.40;;
19291;SDS011;9779;51.756;7.450;2023-06-24T14:31:59;2.00;;;1.40;;
19291;SDS011;9779;51.756;7.450;2023-06-24T14:34:24;7.63;;;1.00;;
19291;SDS011;9779;51.756;7.450;2023-06-24T14:36:50;1.42;;;1.33;;
19291;SDS011;9779;51.756;7.450;2023-06-24T14:39:15;4.88;;;1.55;;
19291;SDS011;9779;51.756;7.450;2023-06-24T14:41:42;1.60;;;1.50;;
19291;SDS011;9779;51.756;7.450;2023-06-24T14:44:08;1.40;;;1.30;;
19291;SDS011;9779;51.756;7.450;2023-06-24T14:46:33;3.33;;;1.30;;
19291;SDS011;9779;51.756;7.450;2023-06-24T14:48:59;8.70;;;1.33;;
19291;SDS011;9779;51.756;7.450;2023-06-24T14:51:25;1.52;;;1.35;;
19291;SDS011;9779;51.756;7.450;2023-06-24T14:53:50;1.83;;;1.02;;
19291;SDS011;9779;51.756;7.450;2023-06-24T14:56:16;1.48;;;1.38;;
19291;SDS011;9779;51.756;7.450;2023-06-24T14:58:41;1.10;;;1.08;;
19291;SDS011;9779;51.756;7.450;2023-06-24T15:01:07;1.98;;;1.48;;
19291;SDS011;9779;51.756;7.450;2023-06-24T15:03:32;1.30;;;1.20;;
19291;SDS011;9779;51.756;7.450;2023-06-24T15:05:58;3.85;;;1.50;;
19291;SDS011;9779;51.756;7.450;2023-06-24T15:08:23;1.92;;;1.50;;
19291;SDS011;9779;51.756;7.450;2023-06-24T15:10:51;1.50;;;1.40;;
19291;SDS011;9779;51.756;7.450;2023-06-24T15:13:17;1.75;;;1.40;;
19291;SDS011;9779;51.756;7.450;2023-06-24T15:15:43;1.98;;;1.88;;
19291;SDS011;9779;51.756;7.450;2023-06-24T15:18:08;1.70;;;1.60;;
19291;SDS011;9779;51.756;7.450;2023-06-24T15:20:34;1.30;;;1.20;;
19291;SDS011;9779;51.756;7.450;2023-06-24T15:22:59;1.30;;;1.20;;
19291;SDS011;9779;51.756;7.450;2023-06-24T15:25:25;4.10;;;1.52;;
19291;SDS011;9779;51.756;7.450;2023-06-24T15:27:52;1.52;;;1.42;;